sensor_id;sensor_type;location;lat;lon;timestamp;temperature;humidity
5956;DHT22;3004;48.080;11.600;2023-05-16T00:01:57;8.50;99.90
5956;DHT22;3004;48.080;11.600;2023-05-16T00:04:26;8.40;99.90
5956;DHT22;3004;48.080;11.600;2023-05-16T00:06:55;8.40;99.90
5956;DHT22;3004;48.080;11.600;2023-05-16T00:09:22;8.40;99.90
5956;DHT22;3004;48.080;11.600;2023-05-16T00:11:49;8.40;99.90
5956;DHT22;3004;48.080;11.600;2023-05-16T00:14:16;8.40;99.90
5956;DHT22;3004;48.080;11.600;2023-05-16T00:16:47;8.40;99.90
5956;DHT22;3004;48.080;11.600;2023-05-16T00:42:52;8.30;99.90
5956;DHT22;3004;48.080;11.600;2023-05-16T00:45:24;8.30;99.90
5956;DHT22;3004;48.080;11.600;2023-05-16T00:47:51;8.30;99.90
5956;DHT22;3004;48.080;11.600;2023-05-16T00:50:19;8.30;99.90
5956;DHT22;3004;48.080;11.600;2023-05-16T01:06:21;8.30;99.90
5956;DHT22;3004;48.080;11.600;2023-05-16T01:08:49;8.30;99.90
5956;DHT22;3004;48.080;11.600;2023-05-16T01:11:24;8.30;99.90
5956;DHT22;3004;48.080;11.600;2023-05-16T01:40:52;8.20;99.90
5956;DHT22;3004;48.080;11.600;2023-05-16T01:50:33;8.10;99.90
5956;DHT22;3004;48.080;11.600;2023-05-16T01:59:48;8.20;99.90
5956;DHT22;3004;48.080;11.600;2023-05-16T02:19:46;8.10;99.90
5956;DHT22;3004;48.080;11.600;2023-05-16T02:22:13;8.10;99.90
5956;DHT22;3004;48.080;11.600;2023-05-16T03:11:46;7.90;99.90
5956;DHT22;3004;48.080;11.600;2023-05-16T05:35:34;8.40;99.90
5956;DHT22;3004;48.080;11.600;2023-05-16T05:38:09;8.40;99.90
5956;DHT22;3004;48.080;11.600;2023-05-16T05:50:34;8.40;99.90
5956;DHT22;3004;48.080;11.600;2023-05-16T05:56:24;8.40;99.90
5956;DHT22;3004;48.080;11.600;2023-05-16T05:58:51;8.60;99.90
5956;DHT22;3004;48.080;11.600;2023-05-16T06:01:18;8.60;99.90
5956;DHT22;3004;48.080;11.600;2023-05-16T06:03:48;8.60;99.90
5956;DHT22;3004;48.080;11.600;2023-05-16T06:09:41;8.60;99.90
5956;DHT22;3004;48.080;11.600;2023-05-16T06:18:55;8.60;99.90
5956;DHT22;3004;48.080;11.600;2023-05-16T06:21:22;8.60;99.90
5956;DHT22;3004;48.080;11.600;2023-05-16T06:23:52;8.50;99.90
5956;DHT22;3004;48.080;11.600;2023-05-16T06:26:24;8.60;99.90
5956;DHT22;3004;48.080;11.600;2023-05-16T06:28:59;8.60;99.90
5956;DHT22;3004;48.080;11.600;2023-05-16T06:31:29;8.60;99.90
5956;DHT22;3004;48.080;11.600;2023-05-16T06:33:57;8.70;99.90
5956;DHT22;3004;48.080;11.600;2023-05-16T06:36:25;8.70;99.90
5956;DHT22;3004;48.080;11.600;2023-05-16T06:38:52;8.80;99.90
5956;DHT22;3004;48.080;11.600;2023-05-16T06:41:30;8.80;99.90
5956;DHT22;3004;48.080;11.600;2023-05-16T06:47:19;8.90;99.90
5956;DHT22;3004;48.080;11.600;2023-05-16T06:49:49;8.90;99.90
5956;DHT22;3004;48.080;11.600;2023-05-16T06:52:16;9.10;99.90
5956;DHT22;3004;48.080;11.600;2023-05-16T06:54:45;9.00;99.90
5956;DHT22;3004;48.080;11.600;2023-05-16T06:57:15;9.00;99.90
5956;DHT22;3004;48.080;11.600;2023-05-16T06:59:45;8.90;99.90
5956;DHT22;3004;48.080;11.600;2023-05-16T07:02:13;9.00;99.90
5956;DHT22;3004;48.080;11.600;2023-05-16T07:04:42;8.90;99.90
5956;DHT22;3004;48.080;11.600;2023-05-16T07:07:12;9.00;99.90
5956;DHT22;3004;48.080;11.600;2023-05-16T07:13:03;9.10;99.90
5956;DHT22;3004;48.080;11.600;2023-05-16T07:15:30;9.10;99.90
5956;DHT22;3004;48.080;11.600;2023-05-16T07:18:01;9.10;99.90
5956;DHT22;3004;48.080;11.600;2023-05-16T07:20:31;9.20;99.90
5956;DHT22;3004;48.080;11.600;2023-05-16T07:22:58;9.30;99.90
5956;DHT22;3004;48.080;11.600;2023-05-16T07:25:25;9.20;99.90
5956;DHT22;3004;48.080;11.600;2023-05-16T07:27:59;9.20;99.90
5956;DHT22;3004;48.080;11.600;2023-05-16T07:30:34;9.20;99.90
5956;DHT22;3004;48.080;11.600;2023-05-16T07:33:03;9.20;99.90
5956;DHT22;3004;48.080;11.600;2023-05-16T07:35:32;9.10;99.90
5956;DHT22;3004;48.080;11.600;2023-05-16T07:38:01;9.10;99.90
5956;DHT22;3004;48.080;11.600;2023-05-16T07:40:28;9.10;99.90
5956;DHT22;3004;48.080;11.600;2023-05-16T07:42:54;9.10;99.90
5956;DHT22;3004;48.080;11.600;2023-05-16T07:45:27;9.10;99.90
5956;DHT22;3004;48.080;11.600;2023-05-16T07:47:55;9.00;99.90
5956;DHT22;3004;48.080;11.600;2023-05-16T07:50:23;9.00;99.90
5956;DHT22;3004;48.080;11.600;2023-05-16T07:52:50;9.00;99.90
5956;DHT22;3004;48.080;11.600;2023-05-16T07:55:17;8.90;99.90
5956;DHT22;3004;48.080;11.600;2023-05-16T07:57:47;8.90;99.90
5956;DHT22;3004;48.080;11.600;2023-05-16T08:03:38;9.00;99.90
5956;DHT22;3004;48.080;11.600;2023-05-16T08:06:05;9.00;99.90
5956;DHT22;3004;48.080;11.600;2023-05-16T08:08:32;9.10;99.90
5956;DHT22;3004;48.080;11.600;2023-05-16T08:10:59;9.00;99.90
5956;DHT22;3004;48.080;11.600;2023-05-16T08:13:33;9.00;99.90
5956;DHT22;3004;48.080;11.600;2023-05-16T08:19:26;9.30;99.90
5956;DHT22;3004;48.080;11.600;2023-05-16T08:21:55;9.30;99.90
5956;DHT22;3004;48.080;11.600;2023-05-16T08:24:27;9.40;99.90
5956;DHT22;3004;48.080;11.600;2023-05-16T08:26:54;9.40;99.90
5956;DHT22;3004;48.080;11.600;2023-05-16T08:29:23;9.40;99.90
5956;DHT22;3004;48.080;11.600;2023-05-16T08:31:52;9.50;99.90
5956;DHT22;3004;48.080;11.600;2023-05-16T08:34:19;9.50;99.90
5956;DHT22;3004;48.080;11.600;2023-05-16T08:37:13;9.50;99.90
5956;DHT22;3004;48.080;11.600;2023-05-16T08:39:41;9.50;99.90
5956;DHT22;3004;48.080;11.600;2023-05-16T08:42:08;9.50;99.90
5956;DHT22;3004;48.080;11.600;2023-05-16T08:44:35;9.50;99.90
5956;DHT22;3004;48.080;11.600;2023-05-16T08:47:09;9.40;99.90
5956;DHT22;3004;48.080;11.600;2023-05-16T08:49:43;9.50;99.90
5956;DHT22;3004;48.080;11.600;2023-05-16T08:52:21;9.50;99.90
5956;DHT22;3004;48.080;11.600;2023-05-16T08:54:50;9.60;99.90
5956;DHT22;3004;48.080;11.600;2023-05-16T08:57:19;9.60;99.90
5956;DHT22;3004;48.080;11.600;2023-05-16T08:59:46;9.60;99.90
5956;DHT22;3004;48.080;11.600;2023-05-16T09:02:14;9.60;99.90
5956;DHT22;3004;48.080;11.600;2023-05-16T09:04:42;9.60;99.90
5956;DHT22;3004;48.080;11.600;2023-05-16T09:07:22;9.60;99.90
5956;DHT22;3004;48.080;11.600;2023-05-16T21:04:05;8.30;99.90
